ADDS METAR Data INFO
IDs: Format: Raw Decoded Include TAF

Data at: 2252 UTC 22 Jun 2018

KMYL 222239Z AUTO 20017KT 10SM -RA BKN070 OVC100 17/10 A3008 RMK AO2 LTG DSNT W-N RAB32 PRESRR P0000 T01670100
KMYL 222217Z AUTO 24007KT 10SM VCTS FEW070 SCT100 22/07 A3005 RMK AO2 LTG DSNT NE AND SW AND W T02220067 $
KMYL 222151Z AUTO 23008KT 10SM CLR 23/07 A3006 RMK AO2 LTG DSNT SW-N SLP142 T02330067 $
KMYL 222051Z AUTO 18006KT 10SM FEW060 SCT085 22/08 A3008 RMK AO2 LTG DSNT NW SLP152 T02170083 58014 $
KMYL 221951Z AUTO 26004KT 10SM SCT047 BKN055 21/10 A3010 RMK AO2 SLP159 T02110100 $
KMYL 221851Z AUTO VRB03KT 10SM SCT065 BKN080 20/10 A3012 RMK AO2 SLP165 T02000100 $
KMYL 221751Z AUTO VRB03KT 10SM FEW070 19/09 A3013 RMK AO2 SLP167 T01890094 10189 20061 58008 $
KMYL 221651Z AUTO 18004KT 10SM OVC065 14/11 A3014 RMK AO2 SLP178 T01440111 $
KMYL 221551Z AUTO 18006KT 10SM FEW004 13/11 A3015 RMK AO2 SLP180 T01280111 $
KMYL 221532Z AUTO 19006KT 10SM FEW005 12/11 A3015 RMK AO2 T01220106 $
KMYL 221451Z AUTO 00000KT 10SM CLR 12/10 A3015 RMK AO2 SLP181 T01220100 50002 $
KMYL 221351Z AUTO 00000KT 10SM CLR 09/08 A3016 RMK AO2 SLP186 T00890083 $
KMYL 221251Z AUTO 00000KT 10SM CLR 07/07 A3016 RMK AO2 SLP189 T00720067 $
KMYL 221237Z AUTO 06003KT 10SM FEW002 07/06 A3016 RMK AO2 T00670061 $
KMYL 221231Z AUTO 06003KT 2SM BR FEW002 07/06 A3016 RMK AO2 T00670061 $
KMYL 221213Z AUTO 25003KT 1/2SM FG VV002 06/06 A3015 RMK AO2 T00610056 $
KMYL 221207Z AUTO 00000KT 1SM BR CLR 06/06 A3015 RMK AO2 T00610061 $
KMYL 221151Z AUTO 00000KT 10SM CLR 07/07 A3015 RMK AO2 SLP186 70002 T00720067 10133 20072 51000 $
KMYL 221051Z AUTO 00000KT 5SM BR CLR 07/07 A3015 RMK AO2 SLP186 T00720067 $
KMYL 220951Z AUTO 00000KT 10SM CLR 09/08 A3015 RMK AO2 SLP188 T00890078 $
KMYL 220851Z AUTO 00000KT 10SM CLR 09/08 A3015 RMK AO2 SLP186 T00940083 55000 $
KMYL 220751Z AUTO 00000KT 10SM CLR 11/09 A3014 RMK AO2 SLP175 T01060094 $
KMYL 220651Z AUTO 03004KT 10SM CLR 11/10 A3014 RMK AO2 SLP175 T01110100 402000106 $
KMYL 220551Z AUTO 35004KT 10SM CLR 13/11 A3015 RMK AO2 SLP175 60000 T01280106 10194 20128 $
KMYL 220451Z AUTO 07003KT 10SM FEW060 FEW095 14/12 A3015 RMK AO2 RAB00E21 SLP176 P0000 T01390117 $
KMYL 220351Z AUTO 01003KT 10SM SCT050 BKN060 OVC080 16/11 A3014 RMK AO2 SLP174 T01560111 $
KMYL 220151Z AUTO 34006KT 10SM FEW055 FEW070 OVC090 18/09 A3012 RMK AO2 SLP166 T01780094
KMYL 220051Z AUTO 27007KT 10SM BKN039 BKN049 BKN080 18/10 A3011 RMK AO2 SLP166 T01780100
KMYL 212351Z AUTO 25005KT 10SM FEW047 SCT060 OVC075 17/09 A3011 RMK AO2 SLP167 60001 T01720089 10200 20144 51002
KMYL 212251Z AUTO 26005KT 10SM SCT032 BKN040 OVC060 17/10 A3010 RMK AO2 SLP165 T01670100
KMYL 212151Z AUTO 10004KT 10SM SCT036 OVC065 16/11 A3011 RMK AO2 TSE2058 SLP169 T01560111
KMYL 212116Z AUTO 24004KT 10SM OVC080 16/11 A3011 RMK AO2 LTG DSNT E AND SE TSE2058 T01610106
KMYL 212103Z AUTO 26007KT 10SM VCTS FEW024 FEW075 OVC090 16/11 A3010 RMK AO2 LTG DSNT NE-SE TSE2058 T01610111
KMYL 212051Z AUTO 34008KT 10SM TS FEW022 SCT060 OVC085 15/11 A3010 RMK AO2 LTG DSNT NE-SE RAB18E41 TSB29 SLP165 P0001 60001 T01500111 53002
KMYL 212034Z AUTO 28013G18KT 10SM -TSRA FEW038 SCT047 OVC080 14/11 A3009 RMK AO2 LTG DSNT SE AND S RAB18 TSB29 P0001 T01440106
KMYL 212016Z AUTO 26017G24KT 10SM VCTS SCT038 OVC046 18/11 A3007 RMK AO2 LTG DSNT SE AND SW T01780106
KMYL 211951Z AUTO 11005KT 10SM FEW045 SCT110 19/10 A3006 RMK AO2 LTG DSNT SE AND SW AND NW SLP145 T01940100
KMYL 211851Z AUTO 29004KT 10SM CLR 19/11 A3008 RMK AO2 SLP151 T01890111
KMYL 211751Z AUTO 31006KT 10SM FEW055 18/11 A3009 RMK AO2 SLP153 60001 T01830111 10183 20106 50001
KMYL 211651Z AUTO 01003KT 10SM FEW037 FEW060 17/11 A3010 RMK AO2 SLP154 T01720106
KMYL 211551Z AUTO 00000KT 10SM BKN065 OVC080 14/11 A3010 RMK AO2 SLP159 T01390111
KMYL 211451Z AUTO 32005KT 10SM SCT060 SCT110 12/11 A3009 RMK AO2 RAB1354E30 SLP155 P0001 60001 T01220106 50007
KMYL 211351Z AUTO 00000KT 10SM OVC065 12/11 A3009 RMK AO2 LTG DSNT E AND SE SLP155 T01220106
KMYL 211300Z AUTO 00000KT 10SM SCT070 BKN090 11/10 A3008 RMK AO2 LTG DSNT SW AND W T01110100
KMYL 211251Z AUTO 30003KT 10SM VCTS FEW070 BKN090 BKN100 11/10 A3008 RMK AO2 SLP150 T01060100
KMYL 211217Z AUTO 06007KT 10SM VCTS FEW085 SCT110 11/09 A3006 RMK AO2 LTG DSNT W-NE T01110094
KMYL 211151Z AUTO 04003KT 10SM BKN085 BKN110 11/10 A3006 RMK AO2 SLP145 60010 70010 T01060100 10161 20106 56017